Weather observations for the past three days for
Lexington, Jim Kelly Field Airport
Imperial (Metric)
Date Time (cdt) Wind (mph) Vis. (mi.) Weather Sky Cond. Temperature (ºF) Relative Humidity Wind Chill (°F) Heat Index (°F) Pressure Precipitation (in)
Air Dwpt 6 hour altimeter (in) sea level (mb) 1 hr 3 hr 6 hr
Max. Min.
05 02:35 NE 6 10.00 Overcast OVC080 50.4 36.7 60% 29.86 0.0
05 02:15 NE 7 10.00 Overcast OVC090 50.5 36 58% 29.86 0.0
05 01:55 NE 7 10.00 Overcast OVC090 50.5 36.3 58% 29.86 0.0
05 01:35 NE 6 10.00 Overcast OVC090 50 36.5 60% 48 29.86 0.0
05 01:15 NE 5 10.00 Overcast OVC110 50 36.1 59% 49 29.86 0.0
05 00:55 NE 6 10.00 Partly Cloudy SCT110 50.2 36 68 50.2 58% 29.86 0.0
05 00:35 NE 7 10.00 Fair CLR 50.9 35.6 56% 29.85 0.0
05 00:15 NE 7 10.00 Partly Cloudy SCT120 51.8 35.4 54% 29.86 0.0
04 23:55 NE 9 10.00 Partly Cloudy SCT120 52.9 35.2 51% 29.85 0.0
04 23:35 NE 13 10.00 Partly Cloudy SCT090 SCT110 53.1 35.1 51% 29.85 0.0
04 23:15 NE 12 10.00 Mostly Cloudy SCT090 BKN110 53.8 35.6 50% 29.85 0.0
04 22:55 NE 12 G 18 10.00 Partly Cloudy SCT090 SCT120 54.3 36 50% 29.85 0.0
04 22:35 NE 12 G 25 10.00 Partly Cloudy SCT090 SCT120 54.9 37 51% 29.84 0.0
04 22:15 NE 20 G 25 10.00 Partly Cloudy SCT090 SCT110 56.1 37.2 49% 29.84 0.0
04 21:55 NE 16 G 23 10.00 Mostly Cloudy BKN080 BKN120 56.8 38.3 50% 29.82 0.0
04 21:35 NE 16 G 21 10.00 Mostly Cloudy BKN080 BKN100 57.7 37.4 47% 29.83 0.0
04 21:15 NE 17 10.00 Partly Cloudy SCT090 SCT120 58.1 37 46% 29.81 0.0
04 20:55 NE 16 10.00 Fair CLR 59 37.6 45% 29.81 0.0
04 20:35 NE 18 G 24 10.00 Fair CLR 59.4 37.9 45% 29.78 0.0
04 20:15 NE 22 G 32 10.00 Fair and Breezy CLR 60.6 37.9 43% 29.77 0.0
04 19:55 NE 16 G 29 10.00 Fair CLR 63 38.1 40% 29.74 0.0
04 19:35 NE 20 G 26 10.00 Fair CLR 65.5 37.4 36% 29.73 0.0
04 19:15 NE 22 G 26 10.00 Fair and Breezy CLR 66.4 37 34% 29.73 0.0
04 18:55 NE 22 G 26 10.00 Fair and Breezy CLR 68.4 37.6 78.1 68.2 32% 29.73 0.0
04 18:35 NE 24 G 29 10.00 Fair and Breezy CLR 69.3 37.9 32% 29.71 0.0
04 18:15 NE 18 G 25 10.00 Fair CLR 69.4 37.4 31% 29.71 0.0
04 17:55 NE 21 G 25 10.00 Fair and Breezy CLR 70.9 37.6 30% 29.7 0.0
04 17:35 NE 22 G 28 10.00 Fair and Breezy CLR 71.8 37 28% 29.7 0.0
04 17:15 NE 20 G 29 10.00 Fair CLR 72 37 28% 29.69 0.0
04 16:55 NE 21 G 26 10.00 Partly Cloudy and Breezy SCT120 72.1 38.5 29% 29.69 0.0
04 16:35 NE 20 G 25 10.00 Partly Cloudy SCT120 70.9 37.4 30% 29.7 0.0
04 16:15 NE 18 G 24 10.00 Fair CLR 73.9 39.6 29% 29.69 0.0
04 15:55 NE 16 G 24 10.00 Partly Cloudy SCT110 73 40.6 31% 29.69 0.0
04 15:35 NE 17 G 24 10.00 Fair CLR 71.4 40.6 33% 29.71 0.0
04 15:15 NE 16 10.00 Fair CLR 72.9 41.4 32% 29.69 0.0
04 14:55 NE 16 G 23 10.00 Fair CLR 76.5 42.8 30% 77 29.69 0.0
04 14:35 N 15 G 24 10.00 Fair CLR 74.8 43 32% 29.69 0.0
04 14:15 NE 15 G 24 10.00 Fair CLR 74.7 42.8 32% 29.68 0.0
04 13:55 N 17 G 25 7.00 Fair CLR 74.3 42.8 32% 29.68 0.0
04 13:35 NE 20 G 26 10.00 Fair CLR 74.7 43.3 33% 29.68 0.0
04 13:15 NE 23 G 28 7.00 Fair and Breezy CLR 75.6 45.1 34% 77 29.68 0.0
04 12:55 NE 24 G 28 4.00 Fair with Haze and Breezy CLR 79.2 45.1 30% 79 29.67 0.0
04 12:35 N 15 G 20 7.00 Fair CLR 79.2 35.8 21% 78 29.67 0.0
04 12:15 N 10 G 23 10.00 Fair CLR 79.3 35.1 20% 78 29.67 0.0
04 11:55 NW 8 G 14 10.00 Fair CLR 77 36.3 23% 77 29.67 0.0
04 11:35 NW 10 G 17 10.00 Fair CLR 75.4 38.5 26% 77 29.68 0.0
04 11:15 N 10 10.00 Fair CLR 76.3 42.8 30% 77 29.68 0.0
04 10:55 N 10 10.00 Fair CLR 73.4 42.1 32% 29.68 0.0 0.03
04 09:55 NW 8 0.00 NULL NULL 0 0 0% 29.69 0.0
04 09:35 W 6 10.00 Fair CLR 64.8 39 39% 29.69 0.0
04 09:15 W 5 10.00 Fair CLR 61.2 38.5 43% 29.69 0.0
04 08:55 W 7 10.00 Fair CLR 58.1 39 49% 29.7 0.0
04 08:35 W 6 10.00 Fair CLR 55 39 55% 29.7 0.0
04 08:15 NW 5 10.00 Fair CLR 51.6 38.5 61% 29.69 0.0
04 07:55 W 6 10.00 Fair CLR 48.4 37.9 67% 46 29.69 0.0
04 07:35 W 7 10.00 Fair CLR 44.8 37.2 75% 41 29.69 0.0
04 07:15 W 6 10.00 Fair CLR 42.4 36.1 78% 39 29.69 0.0
04 06:55 W 9 10.00 Fair CLR 41.2 35.1 49.3 40.8 79% 36 29.69 0.0
04 06:35 W 9 10.00 Fair CLR 41.4 35.6 80% 36 29.69 0.0
04 06:15 NW 9 10.00 Fair CLR 41.5 35.6 80% 36 29.69 0.0
04 05:55 NW 7 10.00 Fair CLR 42.1 35.6 78% 38 29.69 0.0
04 05:35 NW 8 10.00 Fair CLR 41.7 35.6 79% 37 29.69 0.0
04 05:15 NW 5 10.00 Fair CLR 42.8 35.8 76% 41 29.69 0.0
04 04:55 NW 5 10.00 Fair CLR 43.5 35.6 74% 41 29.69 0.0
04 04:35 NW 8 10.00 Fair CLR 43 36 76% 39 29.69 0.0
04 04:15 N 6 10.00 Fair CLR 43 34.3 72% 40 29.69 0.0
04 03:55 N 8 10.00 Fair CLR 43.9 35.6 73% 40 29.69 0.0
04 03:35 N 9 10.00 Fair CLR 44.8 36.9 74% 40 29.69 0.0
04 03:15 Calm 10.00 Fair CLR 48.6 35.4 61% 29.69 0.0
04 02:55 Calm 10.00 Fair CLR 45 34.9 68% 29.69 0.0
04 02:35 S 6 10.00 Fair CLR 46.8 36.9 69% 44 29.69 0.0
04 02:15 SW 6 10.00 Fair CLR 47.3 36 65% 45 29.71 0.0
04 01:55 SW 3 10.00 Fair CLR 47.7 35.8 64% 29.72 0.0
04 01:15 Calm 10.00 Fair CLR 48.7 35.2 60% 29.74 0.0
04 00:55 Calm 10.00 Fair CLR 49.1 35.2 73.2 49.1 59% 29.75 0.0
04 00:35 Calm 10.00 Fair CLR 50.4 34.3 54% 29.76 0.0
04 00:15 Calm 10.00 Fair CLR 55.6 35.6 47% 29.77 0.0
03 23:55 Calm 10.00 Fair CLR 53.8 36.1 51% 29.77 0.0
03 23:35 Calm 10.00 Fair CLR 53.6 35.2 50% 29.77 0.0
03 23:15 Calm 10.00 Fair CLR 55 36 49% 29.78 0.0
03 22:55 SE 5 10.00 Fair CLR 59.5 35.6 41% 29.78 0.0
03 22:15 SE 7 10.00 Fair CLR 60.1 35.8 40% 29.77 0.0
03 21:55 SE 8 10.00 Fair CLR 60.6 36 40% 29.77 0.0
03 21:35 SE 8 10.00 Fair CLR 63.3 34.7 35% 29.77 0.0
03 21:15 E 7 10.00 Fair CLR 64 34.7 34% 29.78 0.0
03 20:55 E 8 10.00 Fair CLR 64.6 34.7 33% 29.78 0.0
03 20:35 E 7 10.00 Fair CLR 68.2 34 28% 29.78 0.0
03 20:15 E 7 10.00 Fair CLR 69.6 35.1 28% 29.78 0.0
03 19:55 E 3 10.00 Fair CLR 69.6 36.7 30% 29.79 0.0
03 19:35 SE 6 10.00 Fair CLR 71.4 36.1 28% 29.79 0.0
03 19:15 E 5 10.00 Fair CLR 71.8 37.4 29% 29.8 0.0
03 18:55 NE 5 10.00 Fair CLR 73 34.7 76.6 72.3 25% 29.8 0.0
03 18:35 E 5 10.00 Fair CLR 73.6 34.5 24% 29.81 0.0
03 18:15 Calm 10.00 Fair CLR 74.5 33.6 22% 29.82 0.0
03 17:55 E 6 10.00 Fair CLR 74.8 36.1 25% 29.82 0.0
03 17:35 NE 6 10.00 Fair CLR 75 35.8 24% 76 29.83 0.0
03 17:15 E 3 10.00 Fair CLR 75.2 33.3 22% 76 29.83 0.0
03 16:55 NE 9 10.00 Fair CLR 75.6 34.3 22% 76 29.83 0.0
03 16:35 E 8 10.00 Fair CLR 75.4 34.2 22% 76 29.84 0.0
03 16:15 E 5 10.00 Fair CLR 75.7 34 22% 76 29.85 0.0
03 15:55 NE 5 10.00 Fair CLR 76.3 33.6 21% 77 29.86 0.0
03 15:35 Calm 10.00 Fair CLR 75 31.1 20% 76 29.86 0.0
03 15:15 E 8 10.00 Fair CLR 76.1 34.2 22% 77 29.87 0.0
03 14:55 NE 7 10.00 Fair CLR 75.9 35.1 23% 77 29.87 0.0
03 14:35 E 7 10.00 Fair CLR 74.5 32.4 21% 29.88 0.0
03 14:15 NE 3 10.00 Fair CLR 74.7 32.9 22% 29.89 0.0
03 13:55 NE 7 10.00 Fair CLR 73.8 34.5 24% 29.9 0.0
03 13:35 NE 9 10.00 Fair CLR 73.2 34.3 24% 29.91 0.0
03 13:15 NE 9 10.00 Fair CLR 72.5 34.2 25% 29.92 0.0
03 12:55 NE 6 G 18 10.00 Fair CLR 73.8 34.3 74.1 39.9 24% 29.93 0.0
03 12:35 N 12 10.00 Fair CLR 73 34.5 24% 29.94 0.0
03 12:15 NE 9 G 18 10.00 Fair CLR 72.5 34 24% 29.94 0.0
03 11:55 NE 13 G 16 10.00 Fair CLR 71.4 33.3 25% 29.95 0.0
03 11:35 NE 9 G 17 10.00 Fair CLR 71.6 34.3 25% 29.95 0.0
03 11:15 NE 9 10.00 Fair CLR 70.3 34.2 26% 29.96 0.0
03 10:55 NE 13 G 17 10.00 Fair CLR 68.4 33.8 28% 29.96 0.0
03 10:35 NE 12 G 18 10.00 Fair CLR 67.8 33.3 28% 29.96 0.0
03 10:15 NE 15 10.00 Fair CLR 66.4 33.6 30% 29.97 0.0
03 09:55 NE 12 10.00 Fair CLR 64.6 35.1 33% 29.97 0.0
03 09:35 NE 13 10.00 Fair CLR 62.6 35.4 36% 29.97 0.0
03 09:15 NE 9 10.00 Fair CLR 58.5 38.7 48% 29.97 0.0
03 08:55 N 7 10.00 Fair CLR 54.1 36 50% 29.97 0.0
03 08:35 N 7 10.00 Fair CLR 52.3 35.4 53% 29.96 0.0
03 08:15 N 7 10.00 Fair CLR 49.6 34.5 56% 47 29.95 0.0
03 07:55 NW 6 10.00 Fair CLR 47.5 35.1 62% 45 29.95 0.0
03 07:35 NW 5 10.00 Fair CLR 43.9 34 68% 42 29.94 0.0
03 07:15 W 7 10.00 Fair CLR 40.5 32.9 75% 36 29.94 0.0
03 06:55 NW 8 10.00 Fair CLR 39 31.8 59.4 38.8 75% 34 29.92 0.0
03 06:35 NW 5 10.00 Fair CLR 39.2 31.6 74% 36 29.92 0.0
03 06:15 NW 6 10.00 Fair CLR 41.2 31.8 69% 38 29.92 0.0
03 05:55 NW 6 10.00 Fair CLR 41.2 32 70% 38 29.9 0.0
03 05:35 W 5 10.00 Fair CLR 41.9 31.5 67% 40 29.9 0.0
03 05:15 Calm 10.00 Fair CLR 40.6 31.6 70% 29.9 0.0
03 04:55 W 3 10.00 Fair CLR 44.4 32.2 62% 29.9 0.0
03 04:35 Calm 10.00 Fair CLR 42.8 32.2 66% 29.91 0.0
03 04:15 W 6 10.00 Fair CLR 47.1 32.9 58% 45 29.91 0.0
03 03:55 NW 12 10.00 Fair CLR 48.9 32.5 53% 45 29.91 0.0
03 03:35 W 5 10.00 Fair CLR 52.9 32.2 45% 29.9 0.0
03 03:15 Calm 10.00 Fair CLR 53.8 32.4 44% 29.9 0.0
03 02:55 SW 5 10.00 Fair CLR 55.2 32.4 42% 29.9 0.0
03 02:35 SW 12 G 18 10.00 Fair CLR 56.3 32 40% 29.9 0.0
03 02:15 SW 13 10.00 Fair CLR 57.2 32 39% 29.91 0.0
03 01:55 SW 15 G 20 10.00 Fair CLR 57.6 31.8 38% 29.91 0.0
03 01:35 SW 13 G 22 10.00 Fair CLR 59 31.5 35% 29.91 0.0
03 01:15 SW 17 G 22 10.00 Fair CLR 59.2 30.9 34% 29.91 0.0
03 00:55 SW 15 10.00 Fair CLR 58.6 30.2 73 54.7 34% 29.91 0.0
03 00:35 SW 16 G 23 10.00 Fair CLR 58.3 30.2 34% 29.92 0.0
03 00:15 SW 15 10.00 Fair CLR 58.8 30 34% 29.92 0.0
02 23:55 SW 16 10.00 Fair CLR 58.8 30.2 34% 29.92 0.0
02 23:35 S 15 10.00 Fair CLR 59.5 30.2 33% 29.92 0.0
02 23:15 S 14 10.00 Fair CLR 59.7 30.2 33% 29.92 0.0
02 22:55 S 14 G 21 10.00 Fair CLR 60.4 30 32% 29.94 0.0
02 22:35 S 10 10.00 Fair CLR 59.4 29.3 32% 29.94 0.0
02 22:15 S 13 10.00 Fair CLR 57.6 28.9 34% 29.94 0.0
02 21:55 S 12 10.00 Fair CLR 55 29.5 38% 29.94 0.0
02 21:35 S 9 10.00 Fair CLR 55.6 29.7 37% 29.94 0.0
02 21:15 S 9 10.00 Fair CLR 59 28.4 31% 29.94 0.0
02 20:55 S 9 10.00 Fair CLR 58.3 29.5 33% 29.94 0.0
02 20:35 S 8 10.00 Fair CLR 62.1 28.8 28% 29.94 0.0
02 20:15 S 9 10.00 Fair CLR 66.7 27.9 23% 29.94 0.0
02 19:55 SW 12 10.00 Fair CLR 70.3 25 18% 29.95 0.0
02 19:35 SW 8 10.00 Fair CLR 71.8 24.8 17% 29.95 0.0
02 19:15 SW 10 10.00 Fair CLR 72.7 23.4 16% 29.96 0.0
02 18:55 SW 10 10.00 Fair CLR 73.4 23.4 73.9 63.5 15% 29.97 0.0
02 18:35 W 10 10.00 Fair CLR 73.6 22.6 15% 29.98 0.0
02 18:15 W 12 10.00 Fair CLR 73.8 24.1 16% 29.98 0.0
02 17:55 W 6 10.00 Fair CLR 73.4 23.5 15% 29.98 0.0
02 17:35 W 12 G 16 10.00 Fair CLR 73.4 24.1 16% 29.99 0.0
02 17:15 W 10 G 18 10.00 Fair CLR 73 24.3 16% 30 0.0
02 16:55 W 14 G 21 10.00 Fair CLR 72.5 24.4 16% 30.01 0.0
02 16:35 W 10 G 22 10.00 Fair CLR 72.5 25.3 17% 30.02 0.0
02 16:15 SW 12 G 21 10.00 Fair CLR 71.8 26.2 18% 30.04 0.0
02 15:55 SW 12 10.00 Fair CLR 71.2 26.4 19% 30.05 0.0
02 15:35 W 14 G 18 10.00 Fair CLR 69.8 27.5 21% 30.06 0.0
02 15:15 W 7 G 20 10.00 Fair CLR 69.6 27.1 20% 30.06 0.0
02 14:55 SW 9 G 17 10.00 Fair CLR 69.3 28.4 22% 30.07 0.0
02 14:35 W 9 10.00 Fair CLR 68.9 26.8 21% 30.08 0.0
02 14:15 W 12 G 21 10.00 Fair CLR 67.3 27.1 22% 30.09 0.0
02 13:55 W 9 G 20 10.00 Fair CLR 66.2 26.2 22% 30.1 0.0
02 13:35 SW 16 G 22 10.00 Fair CLR 66 27.1 23% 30.11 0.0
02 13:15 SW 9 G 17 10.00 Fair CLR 64.4 26.1 23% 30.13 0.0
02 12:55 W 12 G 18 10.00 Fair CLR 63.9 24.8 63.9 29.7 23% 30.14 0.0
02 12:35 Calm 10.00 Fair CLR 62.2 25.3 24% 30.15 0.0
02 12:15 SW 7 10.00 Fair CLR 62.2 27.3 27% 30.16 0.0
02 11:55 W 6 10.00 Fair CLR 60.4 25.2 26% 30.17 0.0
02 11:35 W 8 10.00 Fair CLR 59.7 24.8 26% 30.17 0.0
02 11:15 Calm 10.00 Fair CLR 58.5 25.3 28% 30.18 0.0
02 10:55 Calm 10.00 Fair CLR 58.3 26.4 30% 30.18 0.0
02 10:35 Calm 10.00 Fair CLR 57 26.2 31% 30.19 0.0
02 10:15 Calm 10.00 Fair CLR 56.3 26.6 32% 30.19 0.0
02 09:55 Calm 10.00 Fair CLR 54.5 25.3 32% 30.19 0.0
02 09:35 Calm 10.00 Fair CLR 52.2 29.5 42% 30.2 0.0
02 09:15 Calm 10.00 Fair CLR 47.5 30.6 52% 30.2 0.0
02 08:55 Calm 10.00 Fair CLR 43.9 30 58% 30.2 0.0
02 08:35 Calm 10.00 Fair CLR 41.7 30.2 64% 30.2 0.0
02 08:15 Calm 10.00 Fair CLR 37.9 30.2 74% 30.2 0.0
02 07:55 Calm 10.00 Fair CLR 34 28.2 79% 30.2 0.0
02 07:35 Calm 10.00 Fair CLR 30.9 26.8 85% 30.2 0.0
02 07:15 Calm 10.00 Fair CLR 29.8 25.9 85% 30.2 0.0
02 06:55 Calm 10.00 Fair CLR 29.5 25.7 39.4 27.3 86% 30.2 0.0
02 06:35 Calm 10.00 Fair CLR 28.8 25.5 88% 30.2 0.0
02 06:15 Calm 10.00 Fair CLR 27.5 23.9 86% 30.19 0.0
02 05:55 Calm 10.00 Fair CLR 28 24.8 88% 30.19 0.0
02 05:35 Calm 10.00 Fair CLR 29.3 25.7 86% 30.2 0.0
02 05:15 Calm 10.00 Fair CLR 29.3 25.9 87% 30.2 0.0
02 04:55 Calm 10.00 Fair CLR 30 26.1 85% 30.2 0.0
02 04:35 Calm 10.00 Fair CLR 29.8 25.7 85% 30.2 0.0
02 04:15 Calm 10.00 Fair CLR 30.2 25.7 83% 30.19 0.0
02 03:55 Calm 10.00 Fair CLR 31.1 25.9 81% 30.19 0.0
02 03:35 Calm 10.00 Fair CLR 31.1 26.4 83% 30.19 0.0
02 03:15 Calm 10.00 Fair CLR 32 27.1 82% 30.19 0.0
02 02:55 Calm 10.00 Fair CLR 32.4 27.1 81% 30.19 0.0
Date Time (cdt) Wind (mph) Vis. (mi.) Weather Sky Cond. Air Dwpt Max. Min. Relative Humidity Wind Chill (°F) Heat Index (°F) altimeter (in) sea level (mb) 1 hr 3 hr 6 hr
6 hour
Temperature (ºF) Pressure Precipitation (in)